Time;durP1;ratioP1;P1;durP2;ratioP2;P2;SDS_P1;SDS_P2;PMS_P1;PMS_P2;Temp;Humidity;BMP_temperature;BMP_pressure;BME280_temperature;BME280_humidity;BME280_pressure;Samples;Min_cycle;Max_cycle;Signal;HPM_P1;HPM_P2
2023/06/13 00:00:03;;;;;;;;;7.00;6.67;;;;;22.26;75.24;100352.13;146635;570;46915;-65
2023/06/13 00:03:02;;;;;;;;;7.67;7.67;;;;;22.24;76.18;100348.59;146637;600;45030;-65
2023/06/13 00:06:02;;;;;;;;;9.00;7.67;;;;;22.19;75.85;100347.75;146627;642;47915;-64
2023/06/13 00:08:56;;;;;;;;;11.00;9.00;;;;;22.14;75.80;100343.28;146635;623;45021;-64
2023/06/13 00:12:20;;;;;;;;;9.00;8.67;;;;;22.08;75.26;100347.72;146633;671;45912;-64
2023/06/13 00:15:25;;;;;;;;;9.67;8.33;;;;;21.95;76.80;100344.22;146634;565;46010;-65
2023/06/13 00:18:23;;;;;;;;;7.33;7.33;;;;;21.79;77.31;100348.63;146631;638;45035;-64
2023/06/13 00:21:28;;;;;;;;;;;;;;;;;;;;;
2023/06/13 00:24:27;;;;;;;;;9.00;8.33;;;;;21.67;78.78;100338.09;146632;574;46036;-64
2023/06/13 00:27:24;;;;;;;;;8.00;7.33;;;;;21.61;78.64;100338.94;146638;584;45020;-65
2023/06/13 00:30:27;;;;;;;;;8.00;8.00;;;;;21.53;78.46;100331.94;146634;569;45016;-66
2023/06/13 00:33:31;;;;;;;;;7.00;7.00;;;;;21.49;79.43;100341.59;146638;602;45020;-63
2023/06/13 00:36:44;;;;;;;;;11.67;11.00;;;;;21.49;79.01;100349.50;146631;625;45033;-63
2023/06/13 00:39:39;;;;;;;;;11.25;9.75;;;;;21.51;81.06;100345.13;146618;703;46029;-63
2023/06/13 00:42:34;;;;;;;;;7.00;6.67;;;;;21.49;80.21;100344.22;146617;586;46915;-63
2023/06/13 00:45:52;;;;;;;;;9.00;8.00;;;;;21.42;79.02;100345.09;146622;622;46010;-64
2023/06/13 00:49:00;;;;;;;;;9.75;9.75;;;;;21.40;79.03;100341.56;146618;637;46025;-65
2023/06/13 00:52:16;;;;;;;;;10.75;9.25;;;;;21.43;79.56;100338.94;146620;646;46011;-64
2023/06/13 00:55:32;;;;;;;;;8.33;7.00;;;;;21.47;80.43;100338.09;146615;566;47012;-64
2023/06/13 00:58:28;;;;;;;;;9.75;8.50;;;;;21.52;81.76;100327.53;146620;622;46020;-65
2023/06/13 01:01:40;;;;;;;;;9.67;8.67;;;;;21.51;80.62;100323.12;146619;584;47012;-66
2023/06/13 01:04:41;;;;;;;;;9.33;8.00;;;;;21.49;78.80;100323.12;146623;582;46010;-64
2023/06/13 01:08:02;;;;;;;;;9.67;9.67;;;;;21.49;79.59;100323.12;146618;645;46017;-64
2023/06/13 01:11:12;;;;;;;;;10.33;10.33;;;;;21.47;78.76;100316.13;146619;655;46025;-65
2023/06/13 01:14:20;;;;;;;;;11.00;9.00;;;;;21.44;79.52;100319.63;146611;574;46017;-64
2023/06/13 01:17:41;;;;;;;;;10.33;9.00;;;;;21.38;79.28;100314.34;146617;606;46020;-66
2023/06/13 01:20:56;;;;;;;;;7.75;7.75;;;;;21.37;79.35;100320.47;146617;569;46012;-67
2023/06/13 01:24:23;;;;;;;;;10.33;7.67;;;;;19.04;78.59;99928.47;146622;593;46052;-65
2023/06/13 01:27:22;;;;;;;;;10.33;9.33;;;;;21.29;80.52;100316.94;146618;642;46012;-65
2023/06/13 01:30:17;;;;;;;;;11.00;11.00;;;;;21.22;80.55;100319.56;146622;675;46021;-65
2023/06/13 01:33:17;;;;;;;;;10.75;10.25;;;;;21.19;79.73;100330.09;146612;678;47014;-66
2023/06/13 01:36:16;;;;;;;;;8.00;7.67;;;;;21.14;80.95;100329.22;146605;641;48010;-64
2023/06/13 01:39:11;;;;;;;;;8.00;8.00;;;;;21.08;80.75;100325.69;146618;593;46016;-65
2023/06/13 01:42:20;;;;;;;;;10.00;10.00;;;;;21.06;81.88;100338.87;146619;584;46025;-64
2023/06/13 01:45:18;;;;;;;;;11.67;10.00;;;;;21.02;81.96;100338.84;146613;582;47012;-65
2023/06/13 01:48:43;;;;;;;;;10.00;9.50;;;;;20.97;79.89;100344.12;146615;687;47010;-65
2023/06/13 01:52:08;;;;;;;;;8.00;8.00;;;;;19.62;78.84;100110.12;146620;571;46013;-64
2023/06/13 01:55:26;;;;;;;;;8.25;7.00;;;;;20.99;80.83;100342.34;146621;565;46020;-66
2023/06/13 01:58:46;;;;;;;;;10.67;9.00;;;;;20.99;81.09;100337.97;146619;629;47012;-65
2023/06/13 02:01:52;;;;;;;;;8.75;8.75;;;;;18.32;80.08;99882.56;146622;681;46020;-65
2023/06/13 02:05:02;;;;;;;;;7.75;7.75;;;;;20.92;81.79;100345.84;146618;675;46012;-65
2023/06/13 02:08:07;;;;;;;;;;;;;;;;;;;;;
2023/06/13 02:11:17;;;;;;;;;8.00;7.00;;;;;20.76;81.00;100352.84;146614;604;46014;-66
2023/06/13 02:14:24;;;;;;;;;10.00;9.50;;;;;18.31;79.78;99954.25;146619;632;47010;-65
2023/06/13 02:17:21;;;;;;;;;11.25;10.25;;;;;20.72;82.04;100367.75;146612;569;46016;-66
2023/06/13 02:20:19;;;;;;;;;10.75;9.75;;;;;20.77;82.38;100375.66;146609;629;47010;-66
2023/06/13 02:23:23;;;;;;;;;10.00;9.00;;;;;20.82;81.81;100370.44;146614;632;48012;-64
2023/06/13 02:26:16;;;;;;;;;11.00;10.00;;;;;20.83;81.84;100372.19;146620;563;46010;-65
2023/06/13 02:29:12;;;;;;;;;11.25;8.50;;;;;20.78;81.89;100380.09;146612;573;46016;-66
2023/06/13 02:32:23;;;;;;;;;12.67;11.33;;;;;20.73;80.75;100380.03;146620;582;47010;-65
2023/06/13 02:35:16;;;;;;;;;9.25;9.00;;;;;20.71;81.84;100388.81;146614;571;46035;-65
2023/06/13 02:38:21;;;;;;;;;;;;;;;;;;;;;
2023/06/13 02:41:20;;;;;;;;;9.50;9.50;;;;;20.73;82.16;100395.84;146614;585;46016;-66
2023/06/13 02:44:33;;;;;;;;;9.00;8.75;;;;;20.72;81.76;100398.50;146621;630;47010;-68
2023/06/13 02:47:37;;;;;;;;;9.67;9.67;;;;;20.70;80.44;100397.59;146615;565;46016;-66
2023/06/13 02:50:42;;;;;;;;;12.50;11.75;;;;;20.69;81.37;100390.56;146617;690;46030;-67
2023/06/13 02:53:37;;;;;;;;;9.00;8.00;;;;;20.72;82.38;100396.75;146613;657;46916;-66
2023/06/13 02:56:29;;;;;;;;;12.25;11.00;;;;;20.80;83.01;100403.78;146612;582;47020;-67
2023/06/13 02:59:32;;;;;;;;;9.50;9.50;;;;;20.85;81.70;100407.34;146614;668;47035;-65
2023/06/13 03:02:27;;;;;;;;;10.50;10.25;;;;;20.91;82.58;100404.72;146619;691;47014;-65
2023/06/13 03:05:25;;;;;;;;;11.25;11.25;;;;;20.91;82.42;100397.69;146609;677;47012;-64
2023/06/13 03:08:22;;;;;;;;;10.50;9.75;;;;;20.82;81.71;100405.56;146616;615;46021;-64
2023/06/13 03:11:15;;;;;;;;;11.00;8.75;;;;;20.75;81.88;100396.75;146614;653;46016;-64
2023/06/13 03:14:11;;;;;;;;;11.75;11.00;;;;;20.79;82.35;100399.41;146619;631;47010;-64
2023/06/13 03:17:06;;;;;;;;;8.75;8.75;;;;;20.84;82.43;100406.47;146611;681;47012;-64
2023/06/13 03:20:09;;;;;;;;;11.00;10.25;;;;;20.91;82.63;100399.44;146616;652;46010;-66
2023/06/13 03:23:18;;;;;;;;;;;;;;;;;;;;;
2023/06/13 03:26:17;;;;;;;;;12.25;10.50;;;;;20.90;81.74;100409.13;146620;661;46029;-65
2023/06/13 03:29:27;;;;;;;;;10.00;10.00;;;;;19.36;80.91;100148.53;146609;639;46915;-65
2023/06/13 03:32:22;;;;;;;;;11.50;11.25;;;;;20.89;82.21;100407.34;146612;592;46020;-65
2023/06/13 03:35:22;;;;;;;;;12.33;12.33;;;;;20.87;82.43;100417.00;146615;581;46012;-64
2023/06/13 03:38:27;;;;;;;;;13.00;10.25;;;;;20.81;82.21;100411.72;146613;599;46020;-65
2023/06/13 03:41:41;;;;;;;;;15.25;13.50;;;;;20.78;82.53;100411.69;146606;572;47917;-65
2023/06/13 03:44:53;;;;;;;;;14.75;13.00;;;;;18.28;80.63;99981.34;146612;589;46021;-66
2023/06/13 03:47:50;;;;;;;;;14.50;12.75;;;;;20.84;82.30;100419.63;146610;666;46032;-67
2023/06/13 03:50:52;;;;;;;;;10.25;9.00;;;;;20.86;83.27;100422.25;146606;727;46014;-66
2023/06/13 03:53:54;;;;;;;;;11.50;11.00;;;;;20.84;82.40;100431.91;146618;581;46012;-65
2023/06/13 03:57:07;;;;;;;;;11.75;10.25;;;;;20.81;81.17;100440.69;146616;714;47010;-65
2023/06/13 04:00:27;;;;;;;;;13.00;10.75;;;;;20.83;81.74;100440.69;146612;590;46012;-68
2023/06/13 04:03:22;;;;;;;;;10.00;9.25;;;;;20.87;82.17;100437.19;146614;596;46010;-67
2023/06/13 04:06:14;;;;;;;;;12.00;10.00;;;;;20.93;82.97;100434.56;146614;576;46017;-65
2023/06/13 04:09:06;;;;;;;;;12.00;11.00;;;;;20.98;82.05;100440.75;146613;574;46010;-65
2023/06/13 04:12:05;;;;;;;;;13.33;11.67;;;;;21.04;81.80;100429.38;146612;581;46017;-65
2023/06/13 04:15:03;;;;;;;;;16.00;13.00;;;;;21.10;82.59;100435.53;146619;580;46010;-65
2023/06/13 04:18:05;;;;;;;;;14.50;11.75;;;;;21.16;82.38;100435.56;146612;671;46016;-66
2023/06/13 04:21:19;;;;;;;;;;;;;;;;;;;;;
2023/06/13 04:24:14;;;;;;;;;10.00;10.00;;;;;21.24;80.31;100438.22;146611;577;46016;-66
2023/06/13 04:27:32;;;;;;;;;14.50;11.25;;;;;21.27;80.16;100450.53;146614;678;46021;-67
2023/06/13 04:30:46;;;;;;;;;;;;;;;;;;;;;
2023/06/13 04:33:46;;;;;;;;;9.50;9.50;;;;;21.31;80.39;100449.66;146614;611;47021;-65
2023/06/13 04:36:41;;;;;;;;;13.00;11.33;;;;;21.35;80.89;100451.44;146617;640;47012;-65
2023/06/13 04:39:37;;;;;;;;;13.00;12.00;;;;;21.42;81.04;100458.53;146614;563;46020;-65
2023/06/13 04:42:57;;;;;;;;;13.50;11.75;;;;;21.49;80.24;100459.41;146610;577;46016;-66
2023/06/13 04:45:55;;;;;;;;;13.25;11.00;;;;;21.54;79.46;100462.97;146611;626;47010;-65
2023/06/13 04:48:56;;;;;;;;;11.75;9.50;;;;;21.58;78.32;100470.00;146613;631;46022;-66
2023/06/13 04:51:58;;;;;;;;;10.50;10.50;;;;;21.64;79.03;100480.56;146618;653;46010;-68
2023/06/13 04:54:56;;;;;;;;;10.00;10.00;;;;;21.71;79.28;100479.69;146607;604;47012;-67
2023/06/13 04:57:49;;;;;;;;;11.00;9.25;;;;;21.83;79.33;100484.13;146613;660;46014;-66
2023/06/13 05:00:58;;;;;;;;;11.67;10.67;;;;;21.90;78.90;100481.50;146613;587;47014;-66
2023/06/13 05:03:55;;;;;;;;;12.00;10.50;;;;;22.01;78.46;100480.63;146618;646;47010;-65
2023/06/13 05:06:48;;;;;;;;;8.67;7.67;;;;;22.07;77.86;100480.63;146608;569;47012;-66
2023/06/13 05:09:51;;;;;;;;;10.25;9.50;;;;;22.17;76.74;100494.75;146621;603;46020;-66
2023/06/13 05:12:43;;;;;;;;;11.25;10.75;;;;;22.23;77.26;100500.91;146616;638;47915;-73
2023/06/13 05:15:36;;;;;;;;;10.00;9.00;;;;;22.30;76.82;100501.78;146614;577;46020;-70
2023/06/13 05:18:40;;;;;;;;;8.67;8.00;;;;;22.39;76.67;100504.41;146615;564;46017;-68
2023/06/13 05:21:36;;;;;;;;;10.25;8.75;;;;;22.53;76.15;100502.66;146617;565;47020;-68
2023/06/13 05:24:28;;;;;;;;;7.67;7.67;;;;;22.63;76.09;100494.72;146613;655;47014;-68
2023/06/13 05:27:24;;;;;;;;;7.00;5.67;;;;;22.69;75.50;100492.06;146619;611;46021;-69
2023/06/13 05:30:20;;;;;;;;;13.00;12.25;;;;;22.87;77.06;100507.00;146615;652;46037;-69
2023/06/13 05:33:14;;;;;;;;;11.50;11.50;;;;;22.95;75.84;100498.16;146614;641;46021;-70
2023/06/13 05:36:18;;;;;;;;;12.25;10.75;;;;;23.02;74.98;100496.38;146614;699;47014;-70
2023/06/13 05:39:41;;;;;;;;;;;;;;;;;;;;;
2023/06/13 05:42:50;;;;;;;;;11.75;11.00;;;;;23.20;74.31;100500.72;146630;593;45017;-69
2023/06/13 05:45:42;;;;;;;;;11.00;10.67;;;;;23.28;73.74;100512.19;146634;569;46020;-69
2023/06/13 05:48:37;;;;;;;;;8.33;8.33;;;;;23.31;73.64;100503.34;146633;588;46012;-69
2023/06/13 05:51:57;;;;;;;;;9.33;9.00;;;;;23.44;71.95;100511.22;146633;616;45010;-70
2023/06/13 05:54:58;;;;;;;;;11.00;10.00;;;;;23.52;71.65;100513.84;146633;565;46012;-71
2023/06/13 05:57:59;;;;;;;;;7.25;7.25;;;;;23.59;71.41;100510.25;146635;618;45010;-69
2023/06/13 06:01:04;;;;;;;;;9.00;8.00;;;;;23.66;70.61;100519.91;146634;565;45016;-70
2023/06/13 06:04:00;;;;;;;;;7.67;7.67;;;;;23.68;69.87;100519.94;146636;611;46010;-71
2023/06/13 06:06:58;;;;;;;;;17.25;16.25;;;;;23.71;70.00;100525.25;146629;572;45912;-69
2023/06/13 06:09:59;;;;;;;;;9.00;8.33;;;;;23.74;68.82;100525.22;146636;605;46015;-70
2023/06/13 06:12:56;;;;;;;;;12.67;11.33;;;;;23.66;68.75;100519.03;146631;603;45915;-70
2023/06/13 06:15:51;;;;;;;;;10.33;10.00;;;;;23.69;69.68;100530.53;146637;580;45020;-70
2023/06/13 06:18:55;;;;;;;;;10.00;10.00;;;;;23.70;70.25;100534.03;146628;575;46014;-71
2023/06/13 06:22:14;;;;;;;;;11.00;10.25;;;;;23.72;69.65;100530.50;146626;571;46010;-69
2023/06/13 06:25:12;;;;;;;;;10.00;8.00;;;;;23.77;70.01;100533.16;146632;585;45016;-69
2023/06/13 06:28:31;;;;;;;;;9.00;9.00;;;;;23.82;69.57;100528.69;146636;571;45020;-71
2023/06/13 06:31:39;;;;;;;;;11.00;11.00;;;;;23.88;69.07;100536.59;146631;625;45915;-70
2023/06/13 06:34:33;;;;;;;;;10.00;10.00;;;;;23.90;68.00;100544.53;146636;662;45011;-69
2023/06/13 06:37:25;;;;;;;;;8.67;8.67;;;;;23.91;68.25;100538.34;146622;570;46016;-71
2023/06/13 06:40:29;;;;;;;;;11.00;10.67;;;;;22.87;68.75;100354.53;146624;612;46011;-69
2023/06/13 06:43:24;;;;;;;;;8.33;8.33;;;;;23.96;67.96;100532.13;146617;575;46917;-69
2023/06/13 06:46:20;;;;;;;;;8.33;8.00;;;;;23.95;67.40;100537.41;146619;566;48010;-71
2023/06/13 06:49:24;;;;;;;;;10.67;8.67;;;;;23.94;67.87;100535.66;146617;593;47014;-69
2023/06/13 06:52:36;;;;;;;;;12.33;10.67;;;;;23.95;68.15;100530.34;146611;672;47014;-69
2023/06/13 06:55:30;;;;;;;;;10.67;10.67;;;;;24.02;68.46;100540.91;146612;591;46013;-69
2023/06/13 06:58:29;;;;;;;;;10.00;8.00;;;;;24.07;68.15;100542.63;146618;569;46014;-68
2023/06/13 07:01:26;;;;;;;;;10.33;10.00;;;;;24.10;68.04;100534.66;146618;563;47016;-70
2023/06/13 07:04:36;;;;;;;;;8.67;8.67;;;;;24.12;67.64;100534.69;146609;614;47010;-70
2023/06/13 07:07:28;;;;;;;;;11.00;11.00;;;;;24.10;68.66;100528.50;146615;573;46917;-69
2023/06/13 07:10:26;;;;;;;;;10.00;9.00;;;;;24.13;68.58;100523.19;146617;665;46020;-71
2023/06/13 07:13:25;;;;;;;;;10.00;10.00;;;;;24.15;68.66;100524.06;146612;573;47016;-70
2023/06/13 07:16:26;;;;;;;;;9.67;9.33;;;;;24.16;69.01;100525.81;146612;593;47010;-69
2023/06/13 07:19:21;;;;;;;;;13.33;12.33;;;;;24.22;68.51;100522.22;146615;576;46014;-71
2023/06/13 07:22:29;;;;;;;;;12.67;12.33;;;;;24.28;67.51;100527.47;146608;613;46020;-68
2023/06/13 07:25:38;;;;;;;;;10.00;9.00;;;;;24.28;67.05;100530.12;146609;576;47015;-69
2023/06/13 07:28:38;;;;;;;;;16.00;11.33;;;;;24.20;66.36;100525.78;146621;585;46010;-70
2023/06/13 07:31:37;;;;;;;;;11.00;9.00;;;;;24.15;66.70;100534.66;146613;569;47015;-69
2023/06/13 07:34:41;;;;;;;;;9.67;8.33;;;;;24.14;68.23;100541.72;146615;621;46021;-69
2023/06/13 07:37:57;;;;;;;;;10.00;9.00;;;;;21.67;68.30;100090.94;146617;665;46023;-70
2023/06/13 07:41:00;;;;;;;;;9.67;8.67;;;;;24.41;69.40;100532.69;146619;602;47011;-70
2023/06/13 07:43:58;;;;;;;;;10.67;10.00;;;;;24.54;67.56;100537.88;146616;670;47014;-70
2023/06/13 07:46:55;;;;;;;;;10.33;9.67;;;;;24.54;68.26;100541.41;146616;577;46020;-70
2023/06/13 07:49:53;;;;;;;;;8.67;8.67;;;;;24.41;68.30;100530.03;146616;572;46033;-69
2023/06/13 07:52:49;;;;;;;;;10.00;9.00;;;;;24.42;68.56;100536.22;146619;624;46022;-70
2023/06/13 07:55:54;;;;;;;;;12.00;9.67;;;;;24.52;73.75;100537.03;146616;575;46017;-69
2023/06/13 07:58:53;;;;;;;;;10.33;10.33;;;;;24.74;69.69;100530.62;146621;584;46010;-69
2023/06/13 08:02:00;;;;;;;;;9.00;8.33;;;;;25.09;68.64;100538.19;146612;641;46012;-71
2023/06/13 08:05:10;;;;;;;;;8.33;6.33;;;;;25.52;68.83;100528.87;146615;577;47010;-70
2023/06/13 08:08:04;;;;;;;;;10.33;10.33;;;;;25.86;64.02;100531.06;146620;631;46012;-70
2023/06/13 08:11:08;;;;;;;;;8.00;8.00;;;;;25.92;61.42;100533.62;146615;591;46020;-70
2023/06/13 08:14:12;;;;;;;;;10.33;9.00;;;;;25.83;62.14;100545.31;146618;624;47012;-70
2023/06/13 08:17:26;;;;;;;;;;;;;;;;;;;;;
2023/06/13 08:20:26;;;;;;;;;6.00;6.00;;;;;25.57;62.08;100540.28;146617;661;46012;-70
2023/06/13 08:23:30;;;;;;;;;8.00;8.00;;;;;24.21;62.09;100351.81;146620;570;46010;-67
2023/06/13 08:26:36;;;;;;;;;8.00;8.00;;;;;25.17;61.79;100542.56;146616;585;46034;-65
2023/06/13 08:29:35;;;;;;;;;11.67;7.67;;;;;24.88;59.65;100549.03;146618;599;46020;-66
2023/06/13 08:32:37;;;;;;;;;10.00;9.67;;;;;24.63;61.44;100553.72;146618;606;46916;-66
2023/06/13 08:35:34;;;;;;;;;9.00;8.00;;;;;24.40;61.00;100552.09;146618;610;47010;-67
2023/06/13 08:38:59;;;;;;;;;10.00;8.67;;;;;24.19;62.39;100546.97;146635;585;45914;-68
2023/06/13 08:42:00;;;;;;;;;10.00;9.00;;;;;24.08;63.71;100549.72;146635;610;46010;-67
2023/06/13 08:45:17;;;;;;;;;10.67;9.00;;;;;21.74;64.81;100156.88;146635;580;45016;-66
2023/06/13 08:48:12;;;;;;;;;9.00;7.33;;;;;24.03;63.82;100561.22;146636;584;45035;-66
2023/06/13 08:51:23;;;;;;;;;;;;;;;;;;;;;
2023/06/13 08:54:25;;;;;;;;;5.00;5.00;;;;;24.01;63.68;100565.63;146633;604;45011;-66
2023/06/13 08:57:23;;;;;;;;;7.67;6.00;;;;;23.94;63.90;100567.44;146634;687;46012;-66
2023/06/13 09:00:27;;;;;;;;;6.33;6.33;;;;;23.87;64.42;100573.69;146636;635;45020;-67
2023/06/13 09:03:40;;;;;;;;;6.00;6.00;;;;;23.77;65.29;100561.34;146633;570;46914;-67
2023/06/13 09:06:50;;;;;;;;;6.33;5.00;;;;;23.68;66.31;100572.87;146636;688;45033;-68
2023/06/13 09:09:51;;;;;;;;;6.00;6.00;;;;;23.61;67.86;100572.00;146633;584;45013;-67
2023/06/13 09:12:55;;;;;;;;;8.00;6.33;;;;;23.53;68.41;100573.81;146635;595;45026;-66
2023/06/13 09:15:51;;;;;;;;;7.00;7.00;;;;;23.37;69.04;100578.28;146631;579;46936;-67
2023/06/13 09:18:31;;;;;;;;;6.67;6.67;;;;;23.21;71.48;100568.66;146704;564;46014;-67
2023/06/13 09:21:36;;;;;;;;;6.33;6.33;;;;;23.13;70.67;100568.66;146622;683;46012;-67
2023/06/13 09:24:41;;;;;;;;;9.00;9.00;;;;;23.07;71.73;100570.44;146621;593;46020;-64
2023/06/13 09:27:35;;;;;;;;;6.33;6.33;;;;;22.96;71.89;100573.09;146618;569;46016;-65
2023/06/13 09:30:53;;;;;;;;;7.67;7.00;;;;;22.73;71.57;100567.81;146624;644;46010;-68
2023/06/13 09:33:53;;;;;;;;;8.00;8.00;;;;;22.56;73.80;100568.72;146618;592;46017;-65
2023/06/13 09:37:03;;;;;;;;;7.67;6.33;;;;;22.47;73.45;100568.72;146621;602;47010;-67
2023/06/13 09:40:10;;;;;;;;;9.67;7.67;;;;;22.49;73.57;100568.69;146620;577;47012;-66
2023/06/13 09:43:22;;;;;;;;;7.33;7.33;;;;;22.52;74.22;100566.03;146622;624;47010;-65
2023/06/13 09:46:19;;;;;;;;;7.00;6.00;;;;;22.56;74.77;100567.84;146619;563;47012;-65
2023/06/13 09:49:40;;;;;;;;;7.33;7.33;;;;;21.56;74.48;100371.53;146618;625;47021;-66
2023/06/13 09:52:38;;;;;;;;;8.50;7.25;;;;;22.81;76.20;100550.19;146615;563;46016;-67
2023/06/13 09:55:42;;;;;;;;;11.00;8.00;;;;;23.03;76.21;100556.34;146620;576;47010;-67
2023/06/13 09:58:38;;;;;;;;;6.67;5.67;;;;;23.23;74.23;100558.91;146616;598;47012;-66
2023/06/13 10:01:47;;;;;;;;;6.00;6.00;;;;;23.43;74.33;100562.37;146623;606;47010;-66
2023/06/13 10:04:54;;;;;;;;;8.00;7.67;;;;;23.59;72.64;100559.69;146612;628;47012;-66
2023/06/13 10:07:47;;;;;;;;;7.33;7.00;;;;;23.67;72.50;100550.78;146621;611;47010;-66
2023/06/13 10:10:51;;;;;;;;;7.00;7.00;;;;;23.77;70.81;100549.03;146614;599;46016;-66
2023/06/13 10:14:12;;;;;;;;;7.00;7.00;;;;;23.85;69.34;100546.31;146622;645;46010;-66
2023/06/13 10:17:23;;;;;;;;;7.00;7.00;;;;;23.54;69.47;100472.34;146615;581;46016;-66
2023/06/13 10:20:32;;;;;;;;;6.00;6.00;;;;;23.92;65.19;100534.78;146620;572;47020;-65
2023/06/13 10:23:30;;;;;;;;;7.67;6.33;;;;;23.92;67.28;100543.59;146617;600;47012;-66
2023/06/13 10:26:39;;;;;;;;;6.67;6.67;;;;;23.96;68.02;100542.72;146622;604;46021;-66
2023/06/13 10:30:08;;;;;;;;;6.67;6.00;;;;;24.09;68.78;100548.81;146618;569;46016;-65
2023/06/13 10:33:41;;;;;;;;;5.00;5.00;;;;;24.31;68.40;100548.66;146619;570;47021;-66
2023/06/13 10:37:11;;;;;;;;;7.67;7.33;;;;;24.54;67.76;100538.75;146615;593;47012;-67
2023/06/13 10:40:25;;;;;;;;;8.00;8.00;;;;;24.75;65.82;100532.37;146704;569;46012;-67
2023/06/13 10:43:57;;;;;;;;;5.33;5.33;;;;;24.95;64.28;100540.12;146618;602;46016;-66
2023/06/13 10:47:15;;;;;;;;;4.00;3.00;;;;;25.12;64.39;100526.69;146620;685;46021;-67
2023/06/13 10:50:27;;;;;;;;;7.00;7.00;;;;;25.33;65.19;100526.47;146619;654;46016;-65
2023/06/13 10:53:37;;;;;;;;;4.00;4.00;;;;;25.53;66.49;100523.53;146621;617;46021;-67
2023/06/13 10:56:49;;;;;;;;;6.00;6.00;;;;;25.63;65.37;100503.03;146619;599;47012;-67
2023/06/13 11:00:07;;;;;;;;;5.33;5.33;;;;;25.85;62.52;100518.69;146619;668;47015;-67
2023/06/13 11:03:18;;;;;;;;;7.00;6.00;;;;;25.94;62.99;100511.47;146616;625;47012;-66
2023/06/13 11:06:21;;;;;;;;;4.67;4.67;;;;;26.07;62.78;100511.28;146624;655;46020;-67
2023/06/13 11:09:45;;;;;;;;;4.00;4.00;;;;;26.19;58.87;100506.62;146617;577;47017;-66
2023/06/13 11:12:41;;;;;;;;;4.67;3.00;;;;;26.25;60.10;100497.69;146623;637;46020;-67
2023/06/13 11:15:43;;;;;;;;;3.33;2.67;;;;;26.33;59.50;100498.47;146619;655;47012;-66
2023/06/13 11:22:22;;;;;;;;;4.00;4.00;;;;;26.53;54.80;100494.59;146616;585;47023;-67
2023/06/13 11:25:43;;;;;;;;;3.33;3.33;;;;;24.23;56.08;100098.31;146624;564;46010;-68
2023/06/13 11:28:55;;;;;;;;;5.33;5.00;;;;;26.62;61.05;100494.44;146612;626;46016;-66
2023/06/13 11:32:08;;;;;;;;;6.00;4.67;;;;;26.73;57.79;100489.81;146622;583;46021;-67
2023/06/13 11:35:10;;;;;;;;;4.33;3.67;;;;;26.77;54.89;100486.16;146618;608;46918;-67
2023/06/13 11:38:07;;;;;;;;;3.33;1.00;;;;;26.80;54.11;100480.78;146623;627;46011;-67
2023/06/13 11:41:08;;;;;;;;;5.67;5.67;;;;;26.87;54.61;100482.41;146616;564;46014;-68
2023/06/13 11:44:07;;;;;;;;;5.33;4.00;;;;;26.90;53.49;100481.47;146625;576;46010;-67
2023/06/13 11:47:16;;;;;;;;;6.00;5.00;;;;;26.90;57.19;100478.81;146619;569;46016;-67
2023/06/13 11:50:35;;;;;;;;;5.67;5.67;;;;;26.92;57.29;100466.38;146622;582;47010;-67
2023/06/13 11:54:15;;;;;;;;;4.00;4.00;;;;;24.72;55.19;100097.59;146617;634;46014;-67
2023/06/13 11:57:27;;;;;;;;;3.00;3.00;;;;;24.68;56.32;100095.91;146623;606;46012;-69
2023/06/13 12:00:28;;;;;;;;;4.67;4.67;;;;;26.76;54.15;100460.47;146618;669;46017;-69
2023/06/13 12:03:29;;;;;;;;;4.00;4.00;;;;;26.77;54.45;100450.72;146623;620;46020;-71
2023/06/13 12:06:29;;;;;;;;;5.00;5.00;;;;;26.84;55.21;100455.00;146617;594;47015;-70
2023/06/13 12:09:29;;;;;;;;;2.33;2.33;;;;;26.87;54.46;100455.81;146625;588;46010;-70
2023/06/13 12:12:41;;;;;;;;;3.00;3.00;;;;;26.88;52.45;100457.53;146620;625;46014;-69
2023/06/13 12:15:41;;;;;;;;;3.33;3.33;;;;;26.88;53.47;100464.66;146621;583;46021;-69
2023/06/13 12:18:34;;;;;;;;;4.33;4.33;;;;;26.85;51.83;100454.06;146622;593;46012;-70
2023/06/13 12:21:40;;;;;;;;;3.33;3.00;;;;;26.85;54.91;100446.97;146622;692;47011;-71
2023/06/13 12:25:00;;;;;;;;;3.00;3.00;;;;;24.44;55.80;100036.22;146613;604;46016;-66
2023/06/13 12:27:55;;;;;;;;;4.67;4.00;;;;;26.85;54.67;100454.94;146621;641;46010;-70
2023/06/13 12:31:13;;;;;;;;;3.00;3.00;;;;;26.82;52.44;100455.03;146618;599;47918;-69
2023/06/13 12:34:56;;;;;;;;;5.00;3.67;;;;;24.68;52.78;100098.56;146618;573;47012;-65
2023/06/13 12:38:12;;;;;;;;;4.67;3.00;;;;;26.45;51.90;100450.37;146617;592;46016;-65
2023/06/13 12:41:15;;;;;;;;;1.33;1.00;;;;;26.14;51.47;100447.41;146619;584;46020;-68
2023/06/13 12:44:41;;;;;;;;;3.00;3.00;;;;;25.89;54.07;100456.66;146620;566;46013;-67
2023/06/13 12:48:00;;;;;;;;;3.00;3.00;;;;;25.85;54.94;100449.66;146619;659;47010;-67
2023/06/13 12:50:57;;;;;;;;;3.00;3.00;;;;;25.96;54.50;100461.00;146618;601;46015;-67
2023/06/13 12:53:52;;;;;;;;;3.67;2.67;;;;;26.06;54.21;100446.63;146624;565;46010;-67
2023/06/13 12:57:16;;;;;;;;;4.67;4.67;;;;;26.18;56.09;100438.47;146616;676;46918;-67
2023/06/13 13:00:25;;;;;;;;;3.00;3.00;;;;;26.27;54.24;100437.44;146622;596;46049;-67
2023/06/13 13:03:26;;;;;;;;;4.00;3.00;;;;;26.30;52.74;100429.41;146618;625;46014;-65
2023/06/13 13:06:23;;;;;;;;;3.00;3.00;;;;;26.29;51.71;100434.72;146623;648;47013;-66
2023/06/13 13:09:26;;;;;;;;;2.00;2.00;;;;;26.29;55.17;100434.72;146620;576;46016;-68
2023/06/13 13:12:41;;;;;;;;;2.67;1.33;;;;;24.14;53.23;100062.28;146623;592;47020;-65
2023/06/13 13:16:08;;;;;;;;;3.33;2.00;;;;;23.92;53.34;100024.59;146617;631;46016;-67
2023/06/13 13:19:00;;;;;;;;;4.00;4.00;;;;;26.33;52.29;100439.09;146620;569;46012;-67
2023/06/13 13:22:00;;;;;;;;;2.33;2.33;;;;;26.31;53.13;100422.28;146617;609;47012;-68
2023/06/13 13:25:00;;;;;;;;;1.67;1.67;;;;;26.31;53.02;100419.63;146619;636;46020;-67
2023/06/13 13:28:01;;;;;;;;;2.00;2.00;;;;;26.34;52.88;100406.28;146614;565;47012;-67
2023/06/13 13:30:58;;;;;;;;;3.00;3.00;;;;;26.34;50.51;100406.28;146623;565;46010;-66
2023/06/13 13:34:04;;;;;;;;;2.00;2.00;;;;;26.24;51.33;100414.44;146621;573;46016;-66
2023/06/13 13:37:00;;;;;;;;;2.67;2.00;;;;;26.17;52.93;100410.16;146622;658;47011;-67
2023/06/13 13:40:05;;;;;;;;;3.00;3.00;;;;;26.13;54.93;100410.22;146616;708;47016;-67
2023/06/13 13:43:18;;;;;;;;;3.33;3.33;;;;;26.01;52.43;100413.94;146620;700;47012;-66
2023/06/13 13:46:32;;;;;;;;;3.33;3.33;;;;;25.92;54.08;100406.13;146616;577;46016;-66
2023/06/13 13:49:32;;;;;;;;;3.00;3.00;;;;;25.89;52.10;100398.22;146623;582;46020;-66
2023/06/13 13:52:27;;;;;;;;;3.00;3.00;;;;;25.90;52.44;100397.34;146618;606;47012;-67
2023/06/13 13:55:32;;;;;;;;;6.33;5.33;;;;;25.69;51.83;100362.22;146624;615;46010;-66
2023/06/13 13:58:52;;;;;;;;;4.00;3.00;;;;;25.89;50.82;100390.25;146618;667;46013;-67
2023/06/13 14:01:52;;;;;;;;;2.67;2.67;;;;;25.91;51.92;100405.25;146622;632;46020;-66
2023/06/13 14:04:51;;;;;;;;;3.33;3.00;;;;;25.92;53.77;100406.13;146618;607;46033;-68
2023/06/13 14:07:49;;;;;;;;;3.67;3.67;;;;;25.89;51.15;100400.88;146622;597;46021;-67
2023/06/13 14:10:59;;;;;;;;;4.33;4.00;;;;;25.85;51.38;100400.06;146615;566;47016;-67
2023/06/13 14:13:58;;;;;;;;;4.00;3.00;;;;;25.89;53.41;100398.22;146621;583;47010;-67
2023/06/13 14:16:59;;;;;;;;;4.00;3.00;;;;;25.91;51.65;100391.97;146614;594;47014;-68
2023/06/13 14:20:17;;;;;;;;;3.00;3.00;;;;;23.60;53.60;100003.84;146621;595;46020;-67
2023/06/13 14:23:17;;;;;;;;;2.67;2.67;;;;;25.88;51.15;100401.78;146615;602;46016;-67
2023/06/13 14:26:14;;;;;;;;;6.00;3.67;;;;;25.76;53.12;100397.50;146623;618;45020;-66
2023/06/13 14:29:09;;;;;;;;;4.00;3.33;;;;;25.73;52.97;100382.53;146618;569;47012;-67